sensor_id;sensor_type;location;lat;lon;timestamp;P1;durP1;ratioP1;P2;durP2;ratioP2
21705;SDS011;11014;53.076;18.208;2023-06-26T00:03:25;9.75;;;6.80;;
21705;SDS011;11014;53.076;18.208;2023-06-26T00:05:54;9.30;;;6.38;;
21705;SDS011;11014;53.076;18.208;2023-06-26T00:08:22;9.63;;;6.63;;
21705;SDS011;11014;53.076;18.208;2023-06-26T00:10:52;7.72;;;6.22;;
21705;SDS011;11014;53.076;18.208;2023-06-26T00:13:22;7.78;;;6.35;;
21705;SDS011;11014;53.076;18.208;2023-06-26T00:15:51;11.93;;;7.25;;
21705;SDS011;11014;53.076;18.208;2023-06-26T00:18:20;8.68;;;6.20;;
21705;SDS011;11014;53.076;18.208;2023-06-26T00:20:49;8.93;;;6.97;;
21705;SDS011;11014;53.076;18.208;2023-06-26T00:23:18;8.65;;;6.63;;
21705;SDS011;11014;53.076;18.208;2023-06-26T00:25:47;12.13;;;7.20;;
21705;SDS011;11014;53.076;18.208;2023-06-26T00:28:16;11.63;;;7.35;;
21705;SDS011;11014;53.076;18.208;2023-06-26T00:30:44;11.20;;;7.22;;
21705;SDS011;11014;53.076;18.208;2023-06-26T00:33:14;9.07;;;6.82;;
21705;SDS011;11014;53.076;18.208;2023-06-26T00:35:43;12.27;;;7.63;;
21705;SDS011;11014;53.076;18.208;2023-06-26T00:38:13;15.20;;;8.43;;
21705;SDS011;11014;53.076;18.208;2023-06-26T00:40:42;14.60;;;7.95;;
21705;SDS011;11014;53.076;18.208;2023-06-26T00:43:12;20.63;;;7.78;;
21705;SDS011;11014;53.076;18.208;2023-06-26T00:45:42;15.27;;;7.82;;
21705;SDS011;11014;53.076;18.208;2023-06-26T00:48:11;16.17;;;8.07;;
21705;SDS011;11014;53.076;18.208;2023-06-26T00:50:41;14.90;;;8.00;;
21705;SDS011;11014;53.076;18.208;2023-06-26T00:53:11;13.77;;;8.57;;
21705;SDS011;11014;53.076;18.208;2023-06-26T00:55:40;12.15;;;8.45;;
21705;SDS011;11014;53.076;18.208;2023-06-26T00:58:10;21.30;;;7.95;;
21705;SDS011;11014;53.076;18.208;2023-06-26T01:00:39;13.25;;;8.45;;
21705;SDS011;11014;53.076;18.208;2023-06-26T01:03:09;11.70;;;8.20;;
21705;SDS011;11014;53.076;18.208;2023-06-26T01:05:38;11.57;;;8.13;;
21705;SDS011;11014;53.076;18.208;2023-06-26T01:08:08;14.43;;;8.70;;
21705;SDS011;11014;53.076;18.208;2023-06-26T01:10:37;15.38;;;8.50;;
21705;SDS011;11014;53.076;18.208;2023-06-26T01:13:06;11.90;;;8.57;;
21705;SDS011;11014;53.076;18.208;2023-06-26T01:15:36;10.15;;;7.82;;
21705;SDS011;11014;53.076;18.208;2023-06-26T01:18:05;12.63;;;7.90;;
21705;SDS011;11014;53.076;18.208;2023-06-26T01:20:35;9.75;;;8.27;;
21705;SDS011;11014;53.076;18.208;2023-06-26T01:28:39;11.60;;;8.10;;
21705;SDS011;11014;53.076;18.208;2023-06-26T01:31:10;11.32;;;7.90;;
21705;SDS011;11014;53.076;18.208;2023-06-26T01:33:41;11.40;;;7.38;;
21705;SDS011;11014;53.076;18.208;2023-06-26T01:36:10;10.30;;;7.53;;
21705;SDS011;11014;53.076;18.208;2023-06-26T01:38:39;13.43;;;7.70;;
21705;SDS011;11014;53.076;18.208;2023-06-26T01:41:07;9.68;;;7.90;;
21705;SDS011;11014;53.076;18.208;2023-06-26T01:46:18;12.65;;;8.48;;
21705;SDS011;11014;53.076;18.208;2023-06-26T01:51:52;11.23;;;8.35;;
21705;SDS011;11014;53.076;18.208;2023-06-26T01:57:33;10.93;;;8.40;;
21705;SDS011;11014;53.076;18.208;2023-06-26T02:00:05;11.40;;;8.57;;
21705;SDS011;11014;53.076;18.208;2023-06-26T02:02:47;13.27;;;9.13;;
21705;SDS011;11014;53.076;18.208;2023-06-26T02:05:16;10.52;;;8.48;;
21705;SDS011;11014;53.076;18.208;2023-06-26T02:07:48;12.85;;;8.90;;
21705;SDS011;11014;53.076;18.208;2023-06-26T02:10:17;11.73;;;8.82;;
21705;SDS011;11014;53.076;18.208;2023-06-26T02:12:47;11.68;;;8.43;;
21705;SDS011;11014;53.076;18.208;2023-06-26T02:15:16;13.38;;;8.85;;
21705;SDS011;11014;53.076;18.208;2023-06-26T02:17:44;11.05;;;8.57;;
21705;SDS011;11014;53.076;18.208;2023-06-26T02:22:45;13.85;;;8.48;;
21705;SDS011;11014;53.076;18.208;2023-06-26T02:25:14;15.93;;;8.75;;
21705;SDS011;11014;53.076;18.208;2023-06-26T02:27:43;12.88;;;8.27;;
21705;SDS011;11014;53.076;18.208;2023-06-26T02:30:13;11.27;;;8.15;;
21705;SDS011;11014;53.076;18.208;2023-06-26T02:32:43;12.80;;;8.35;;
21705;SDS011;11014;53.076;18.208;2023-06-26T02:35:11;12.05;;;8.65;;
21705;SDS011;11014;53.076;18.208;2023-06-26T02:37:42;11.55;;;8.40;;
21705;SDS011;11014;53.076;18.208;2023-06-26T02:40:11;11.30;;;8.40;;
21705;SDS011;11014;53.076;18.208;2023-06-26T02:42:41;14.45;;;7.95;;
21705;SDS011;11014;53.076;18.208;2023-06-26T02:45:10;10.82;;;8.27;;
21705;SDS011;11014;53.076;18.208;2023-06-26T02:47:41;11.27;;;8.43;;
21705;SDS011;11014;53.076;18.208;2023-06-26T02:50:14;14.68;;;7.93;;
21705;SDS011;11014;53.076;18.208;2023-06-26T02:53:04;12.07;;;8.05;;
21705;SDS011;11014;53.076;18.208;2023-06-26T02:55:34;11.38;;;8.10;;
21705;SDS011;11014;53.076;18.208;2023-06-26T02:58:06;10.20;;;8.30;;
21705;SDS011;11014;53.076;18.208;2023-06-26T03:00:36;10.10;;;7.90;;
21705;SDS011;11014;53.076;18.208;2023-06-26T03:03:15;10.82;;;8.63;;
21705;SDS011;11014;53.076;18.208;2023-06-26T03:05:44;13.30;;;7.97;;
21705;SDS011;11014;53.076;18.208;2023-06-26T03:08:14;14.32;;;8.38;;
21705;SDS011;11014;53.076;18.208;2023-06-26T03:10:43;11.27;;;8.27;;
21705;SDS011;11014;53.076;18.208;2023-06-26T03:13:12;15.90;;;8.50;;
21705;SDS011;11014;53.076;18.208;2023-06-26T03:15:41;17.05;;;8.63;;
21705;SDS011;11014;53.076;18.208;2023-06-26T03:18:14;22.83;;;8.98;;
21705;SDS011;11014;53.076;18.208;2023-06-26T03:20:45;20.35;;;8.43;;
21705;SDS011;11014;53.076;18.208;2023-06-26T03:23:14;14.77;;;9.43;;
21705;SDS011;11014;53.076;18.208;2023-06-26T03:25:43;15.00;;;8.75;;
21705;SDS011;11014;53.076;18.208;2023-06-26T03:28:35;10.00;;;8.18;;
21705;SDS011;11014;53.076;18.208;2023-06-26T03:31:04;14.80;;;9.15;;
21705;SDS011;11014;53.076;18.208;2023-06-26T03:33:34;17.65;;;9.63;;
21705;SDS011;11014;53.076;18.208;2023-06-26T03:36:03;16.08;;;9.63;;
21705;SDS011;11014;53.076;18.208;2023-06-26T03:38:32;14.45;;;9.52;;
21705;SDS011;11014;53.076;18.208;2023-06-26T03:41:01;14.70;;;9.13;;
21705;SDS011;11014;53.076;18.208;2023-06-26T03:43:30;14.18;;;9.23;;
21705;SDS011;11014;53.076;18.208;2023-06-26T03:46:15;13.73;;;9.63;;
21705;SDS011;11014;53.076;18.208;2023-06-26T03:48:44;13.38;;;9.15;;
21705;SDS011;11014;53.076;18.208;2023-06-26T03:51:14;12.43;;;9.57;;
21705;SDS011;11014;53.076;18.208;2023-06-26T03:54:02;15.73;;;9.65;;
21705;SDS011;11014;53.076;18.208;2023-06-26T03:56:31;15.57;;;10.40;;
21705;SDS011;11014;53.076;18.208;2023-06-26T03:59:00;12.77;;;9.95;;
21705;SDS011;11014;53.076;18.208;2023-06-26T04:01:29;14.93;;;10.15;;
21705;SDS011;11014;53.076;18.208;2023-06-26T04:03:59;14.48;;;9.93;;
21705;SDS011;11014;53.076;18.208;2023-06-26T04:06:29;12.90;;;10.25;;
21705;SDS011;11014;53.076;18.208;2023-06-26T04:09:00;17.23;;;10.85;;
21705;SDS011;11014;53.076;18.208;2023-06-26T04:11:30;16.65;;;11.18;;
21705;SDS011;11014;53.076;18.208;2023-06-26T04:13:59;14.88;;;11.27;;
21705;SDS011;11014;53.076;18.208;2023-06-26T04:16:28;19.77;;;12.02;;
21705;SDS011;11014;53.076;18.208;2023-06-26T04:18:57;15.15;;;12.35;;
21705;SDS011;11014;53.076;18.208;2023-06-26T04:21:26;16.83;;;12.20;;
21705;SDS011;11014;53.076;18.208;2023-06-26T04:23:54;15.55;;;12.02;;
21705;SDS011;11014;53.076;18.208;2023-06-26T04:26:23;17.73;;;12.70;;
21705;SDS011;11014;53.076;18.208;2023-06-26T04:28:54;16.33;;;12.38;;
21705;SDS011;11014;53.076;18.208;2023-06-26T04:31:23;17.02;;;12.13;;
21705;SDS011;11014;53.076;18.208;2023-06-26T04:33:52;16.08;;;12.50;;
21705;SDS011;11014;53.076;18.208;2023-06-26T04:36:23;14.57;;;11.68;;
21705;SDS011;11014;53.076;18.208;2023-06-26T04:38:55;17.73;;;12.52;;
21705;SDS011;11014;53.076;18.208;2023-06-26T04:41:25;16.50;;;11.93;;
21705;SDS011;11014;53.076;18.208;2023-06-26T04:43:53;14.32;;;12.05;;
21705;SDS011;11014;53.076;18.208;2023-06-26T04:46:22;15.63;;;12.00;;
21705;SDS011;11014;53.076;18.208;2023-06-26T04:48:50;17.05;;;11.80;;
21705;SDS011;11014;53.076;18.208;2023-06-26T04:51:19;16.45;;;11.93;;
21705;SDS011;11014;53.076;18.208;2023-06-26T04:53:48;16.92;;;12.30;;
21705;SDS011;11014;53.076;18.208;2023-06-26T04:56:17;15.32;;;11.63;;
21705;SDS011;11014;53.076;18.208;2023-06-26T04:58:45;17.95;;;12.25;;
21705;SDS011;11014;53.076;18.208;2023-06-26T05:01:14;13.00;;;11.15;;
21705;SDS011;11014;53.076;18.208;2023-06-26T05:03:43;15.15;;;11.55;;
21705;SDS011;11014;53.076;18.208;2023-06-26T05:06:13;12.63;;;10.43;;
21705;SDS011;11014;53.076;18.208;2023-06-26T05:08:42;13.05;;;11.18;;
21705;SDS011;11014;53.076;18.208;2023-06-26T05:11:10;14.35;;;11.10;;
21705;SDS011;11014;53.076;18.208;2023-06-26T05:13:39;12.13;;;10.30;;
21705;SDS011;11014;53.076;18.208;2023-06-26T05:16:08;13.52;;;11.05;;
21705;SDS011;11014;53.076;18.208;2023-06-26T05:18:37;11.18;;;9.98;;
21705;SDS011;11014;53.076;18.208;2023-06-26T05:21:06;15.73;;;10.35;;
21705;SDS011;11014;53.076;18.208;2023-06-26T05:23:35;12.88;;;10.80;;
21705;SDS011;11014;53.076;18.208;2023-06-26T05:26:04;13.15;;;10.65;;
21705;SDS011;11014;53.076;18.208;2023-06-26T05:28:32;18.70;;;11.90;;
21705;SDS011;11014;53.076;18.208;2023-06-26T05:31:04;14.07;;;11.00;;
21705;SDS011;11014;53.076;18.208;2023-06-26T05:33:34;17.95;;;10.75;;
21705;SDS011;11014;53.076;18.208;2023-06-26T05:36:05;15.02;;;10.43;;
21705;SDS011;11014;53.076;18.208;2023-06-26T05:38:36;10.82;;;9.65;;
21705;SDS011;11014;53.076;18.208;2023-06-26T05:41:05;12.40;;;10.20;;
21705;SDS011;11014;53.076;18.208;2023-06-26T05:43:34;14.45;;;10.30;;
21705;SDS011;11014;53.076;18.208;2023-06-26T05:46:02;13.70;;;10.95;;
21705;SDS011;11014;53.076;18.208;2023-06-26T05:48:31;12.75;;;10.50;;
21705;SDS011;11014;53.076;18.208;2023-06-26T05:51:00;12.30;;;10.07;;
21705;SDS011;11014;53.076;18.208;2023-06-26T05:53:29;12.98;;;11.23;;
21705;SDS011;11014;53.076;18.208;2023-06-26T05:55:58;14.80;;;10.25;;
21705;SDS011;11014;53.076;18.208;2023-06-26T05:58:27;18.15;;;10.80;;
21705;SDS011;11014;53.076;18.208;2023-06-26T06:00:56;12.50;;;10.65;;
21705;SDS011;11014;53.076;18.208;2023-06-26T06:03:24;17.23;;;10.10;;
21705;SDS011;11014;53.076;18.208;2023-06-26T06:05:53;12.55;;;10.25;;
21705;SDS011;11014;53.076;18.208;2023-06-26T06:08:22;11.35;;;10.15;;
21705;SDS011;11014;53.076;18.208;2023-06-26T06:10:51;11.35;;;10.00;;
21705;SDS011;11014;53.076;18.208;2023-06-26T06:13:19;11.77;;;9.65;;
21705;SDS011;11014;53.076;18.208;2023-06-26T06:15:48;12.30;;;9.20;;
21705;SDS011;11014;53.076;18.208;2023-06-26T06:18:17;10.45;;;9.23;;
21705;SDS011;11014;53.076;18.208;2023-06-26T06:20:46;9.52;;;8.60;;
21705;SDS011;11014;53.076;18.208;2023-06-26T06:23:14;10.48;;;8.90;;
21705;SDS011;11014;53.076;18.208;2023-06-26T06:25:43;9.27;;;8.25;;
21705;SDS011;11014;53.076;18.208;2023-06-26T06:28:12;9.40;;;7.93;;
21705;SDS011;11014;53.076;18.208;2023-06-26T06:30:40;9.30;;;8.27;;
21705;SDS011;11014;53.076;18.208;2023-06-26T06:35:42;11.00;;;9.25;;
21705;SDS011;11014;53.076;18.208;2023-06-26T06:38:10;11.30;;;8.18;;
21705;SDS011;11014;53.076;18.208;2023-06-26T06:40:40;10.15;;;9.07;;
21705;SDS011;11014;53.076;18.208;2023-06-26T06:43:09;9.90;;;8.85;;
21705;SDS011;11014;53.076;18.208;2023-06-26T06:45:37;13.27;;;9.00;;
21705;SDS011;11014;53.076;18.208;2023-06-26T06:48:06;9.48;;;8.48;;
21705;SDS011;11014;53.076;18.208;2023-06-26T06:50:35;11.88;;;8.63;;
21705;SDS011;11014;53.076;18.208;2023-06-26T06:53:04;11.40;;;8.90;;
21705;SDS011;11014;53.076;18.208;2023-06-26T06:55:33;9.85;;;8.80;;
21705;SDS011;11014;53.076;18.208;2023-06-26T06:58:01;11.20;;;8.18;;
21705;SDS011;11014;53.076;18.208;2023-06-26T07:00:33;10.65;;;7.82;;
21705;SDS011;11014;53.076;18.208;2023-06-26T07:03:01;14.65;;;8.50;;
21705;SDS011;11014;53.076;18.208;2023-06-26T07:05:31;9.65;;;8.05;;
21705;SDS011;11014;53.076;18.208;2023-06-26T07:08:00;10.75;;;8.57;;
21705;SDS011;11014;53.076;18.208;2023-06-26T07:10:30;10.10;;;8.52;;
21705;SDS011;11014;53.076;18.208;2023-06-26T07:13:00;8.82;;;7.95;;
21705;SDS011;11014;53.076;18.208;2023-06-26T07:15:32;8.45;;;7.65;;
21705;SDS011;11014;53.076;18.208;2023-06-26T07:18:00;11.02;;;7.97;;
21705;SDS011;11014;53.076;18.208;2023-06-26T07:20:30;9.63;;;8.65;;
21705;SDS011;11014;53.076;18.208;2023-06-26T07:22:58;10.18;;;8.05;;
21705;SDS011;11014;53.076;18.208;2023-06-26T07:25:27;10.25;;;7.30;;
21705;SDS011;11014;53.076;18.208;2023-06-26T07:27:55;7.78;;;6.97;;
21705;SDS011;11014;53.076;18.208;2023-06-26T07:30:24;7.93;;;7.10;;
21705;SDS011;11014;53.076;18.208;2023-06-26T07:32:53;9.55;;;7.32;;
21705;SDS011;11014;53.076;18.208;2023-06-26T07:35:22;7.75;;;7.00;;
21705;SDS011;11014;53.076;18.208;2023-06-26T07:37:50;7.47;;;6.70;;
21705;SDS011;11014;53.076;18.208;2023-06-26T07:40:20;8.73;;;6.97;;
21705;SDS011;11014;53.076;18.208;2023-06-26T07:42:49;9.48;;;6.15;;
21705;SDS011;11014;53.076;18.208;2023-06-26T07:45:18;8.07;;;7.18;;
21705;SDS011;11014;53.076;18.208;2023-06-26T07:47:47;8.23;;;7.28;;
21705;SDS011;11014;53.076;18.208;2023-06-26T07:50:16;9.45;;;8.00;;
21705;SDS011;11014;53.076;18.208;2023-06-26T07:52:49;9.73;;;8.20;;
21705;SDS011;11014;53.076;18.208;2023-06-26T07:55:18;9.15;;;8.20;;
21705;SDS011;11014;53.076;18.208;2023-06-26T07:57:47;9.57;;;8.20;;
21705;SDS011;11014;53.076;18.208;2023-06-26T08:00:16;9.93;;;7.88;;
21705;SDS011;11014;53.076;18.208;2023-06-26T08:02:46;10.27;;;6.97;;
21705;SDS011;11014;53.076;18.208;2023-06-26T08:05:16;11.68;;;7.65;;
21705;SDS011;11014;53.076;18.208;2023-06-26T08:07:45;11.57;;;8.95;;
21705;SDS011;11014;53.076;18.208;2023-06-26T08:10:23;9.82;;;7.38;;
21705;SDS011;11014;53.076;18.208;2023-06-26T08:12:54;12.52;;;8.43;;
21705;SDS011;11014;53.076;18.208;2023-06-26T08:15:24;7.80;;;7.10;;
21705;SDS011;11014;53.076;18.208;2023-06-26T08:17:54;8.70;;;6.88;;
21705;SDS011;11014;53.076;18.208;2023-06-26T08:20:24;8.32;;;7.50;;
21705;SDS011;11014;53.076;18.208;2023-06-26T08:22:52;9.15;;;6.88;;
21705;SDS011;11014;53.076;18.208;2023-06-26T08:25:22;8.30;;;6.85;;
21705;SDS011;11014;53.076;18.208;2023-06-26T08:27:51;9.65;;;6.82;;
21705;SDS011;11014;53.076;18.208;2023-06-26T08:30:21;8.55;;;6.72;;
21705;SDS011;11014;53.076;18.208;2023-06-26T08:32:50;16.58;;;7.90;;
21705;SDS011;11014;53.076;18.208;2023-06-26T08:35:19;10.80;;;7.45;;
21705;SDS011;11014;53.076;18.208;2023-06-26T08:37:48;7.78;;;7.00;;
21705;SDS011;11014;53.076;18.208;2023-06-26T08:40:21;7.20;;;6.05;;
21705;SDS011;11014;53.076;18.208;2023-06-26T08:42:50;7.50;;;6.22;;
21705;SDS011;11014;53.076;18.208;2023-06-26T08:45:22;7.40;;;5.60;;
21705;SDS011;11014;53.076;18.208;2023-06-26T08:47:51;5.95;;;5.35;;
21705;SDS011;11014;53.076;18.208;2023-06-26T08:50:22;9.35;;;5.50;;
21705;SDS011;11014;53.076;18.208;2023-06-26T08:52:54;7.82;;;5.18;;
21705;SDS011;11014;53.076;18.208;2023-06-26T08:55:33;6.50;;;5.10;;
21705;SDS011;11014;53.076;18.208;2023-06-26T08:58:05;7.35;;;5.38;;
21705;SDS011;11014;53.076;18.208;2023-06-26T09:00:34;6.35;;;5.60;;
21705;SDS011;11014;53.076;18.208;2023-06-26T09:03:03;5.93;;;5.32;;
21705;SDS011;11014;53.076;18.208;2023-06-26T09:05:33;9.48;;;5.20;;
21705;SDS011;11014;53.076;18.208;2023-06-26T09:08:02;6.00;;;5.30;;
21705;SDS011;11014;53.076;18.208;2023-06-26T09:10:33;5.95;;;5.35;;
21705;SDS011;11014;53.076;18.208;2023-06-26T09:13:06;6.22;;;5.22;;
21705;SDS011;11014;53.076;18.208;2023-06-26T09:15:56;6.18;;;4.75;;
21705;SDS011;11014;53.076;18.208;2023-06-26T09:18:26;5.13;;;4.63;;
21705;SDS011;11014;53.076;18.208;2023-06-26T09:20:58;5.03;;;4.53;;
21705;SDS011;11014;53.076;18.208;2023-06-26T09:23:27;5.68;;;4.93;;
21705;SDS011;11014;53.076;18.208;2023-06-26T09:25:56;6.97;;;4.65;;
21705;SDS011;11014;53.076;18.208;2023-06-26T09:28:25;5.32;;;4.82;;
21705;SDS011;11014;53.076;18.208;2023-06-26T09:30:55;5.78;;;5.28;;
21705;SDS011;11014;53.076;18.208;2023-06-26T09:33:32;7.97;;;4.45;;
21705;SDS011;11014;53.076;18.208;2023-06-26T09:36:19;6.35;;;4.50;;
21705;SDS011;11014;53.076;18.208;2023-06-26T09:38:52;5.18;;;4.47;;
21705;SDS011;11014;53.076;18.208;2023-06-26T09:41:24;8.02;;;5.22;;
21705;SDS011;11014;53.076;18.208;2023-06-26T09:43:53;5.30;;;4.85;;
21705;SDS011;11014;53.076;18.208;2023-06-26T09:46:29;6.57;;;4.70;;
21705;SDS011;11014;53.076;18.208;2023-06-26T09:49:06;9.88;;;5.20;;
21705;SDS011;11014;53.076;18.208;2023-06-26T09:51:36;5.90;;;5.35;;
21705;SDS011;11014;53.076;18.208;2023-06-26T09:54:06;5.43;;;4.65;;
21705;SDS011;11014;53.076;18.208;2023-06-26T09:56:36;6.43;;;5.30;;
21705;SDS011;11014;53.076;18.208;2023-06-26T09:59:05;7.57;;;5.18;;
21705;SDS011;11014;53.076;18.208;2023-06-26T10:01:39;7.32;;;4.95;;
21705;SDS011;11014;53.076;18.208;2023-06-26T10:04:09;6.07;;;5.00;;
21705;SDS011;11014;53.076;18.208;2023-06-26T10:06:41;7.90;;;4.93;;
21705;SDS011;11014;53.076;18.208;2023-06-26T10:09:19;6.18;;;5.10;;
21705;SDS011;11014;53.076;18.208;2023-06-26T10:11:51;4.97;;;4.53;;
21705;SDS011;11014;53.076;18.208;2023-06-26T10:14:26;9.13;;;5.65;;
21705;SDS011;11014;53.076;18.208;2023-06-26T10:16:57;6.25;;;5.07;;
21705;SDS011;11014;53.076;18.208;2023-06-26T10:19:28;6.15;;;5.53;;
21705;SDS011;11014;53.076;18.208;2023-06-26T10:21:57;6.85;;;5.18;;
21705;SDS011;11014;53.076;18.208;2023-06-26T10:24:28;5.55;;;5.05;;
21705;SDS011;11014;53.076;18.208;2023-06-26T10:27:08;7.57;;;5.10;;
21705;SDS011;11014;53.076;18.208;2023-06-26T10:29:44;5.53;;;5.03;;
21705;SDS011;11014;53.076;18.208;2023-06-26T10:32:15;7.68;;;5.20;;
21705;SDS011;11014;53.076;18.208;2023-06-26T10:34:47;6.68;;;4.53;;
21705;SDS011;11014;53.076;18.208;2023-06-26T10:37:16;4.10;;;3.67;;
21705;SDS011;11014;53.076;18.208;2023-06-26T10:42:14;5.05;;;4.55;;
21705;SDS011;11014;53.076;18.208;2023-06-26T10:44:44;5.72;;;4.32;;
21705;SDS011;11014;53.076;18.208;2023-06-26T10:55:43;5.43;;;4.90;;
21705;SDS011;11014;53.076;18.208;2023-06-26T10:58:27;7.35;;;4.80;;
21705;SDS011;11014;53.076;18.208;2023-06-26T11:06:35;6.47;;;5.03;;
21705;SDS011;11014;53.076;18.208;2023-06-26T11:09:08;6.32;;;5.15;;
21705;SDS011;11014;53.076;18.208;2023-06-26T11:14:27;6.47;;;5.10;;
21705;SDS011;11014;53.076;18.208;2023-06-26T11:16:56;6.35;;;4.93;;
21705;SDS011;11014;53.076;18.208;2023-06-26T11:19:26;5.78;;;5.28;;
21705;SDS011;11014;53.076;18.208;2023-06-26T11:21:59;5.90;;;5.18;;
21705;SDS011;11014;53.076;18.208;2023-06-26T11:24:30;10.30;;;6.55;;
21705;SDS011;11014;53.076;18.208;2023-06-26T11:27:00;5.45;;;4.85;;
21705;SDS011;11014;53.076;18.208;2023-06-26T11:29:34;6.22;;;5.63;;
21705;SDS011;11014;53.076;18.208;2023-06-26T11:32:03;5.43;;;4.93;;
21705;SDS011;11014;53.076;18.208;2023-06-26T11:34:34;5.53;;;5.03;;
21705;SDS011;11014;53.076;18.208;2023-06-26T11:37:03;5.90;;;5.30;;
21705;SDS011;11014;53.076;18.208;2023-06-26T11:39:32;5.38;;;4.93;;
21705;SDS011;11014;53.076;18.208;2023-06-26T11:42:02;5.97;;;5.38;;
21705;SDS011;11014;53.076;18.208;2023-06-26T11:44:31;5.82;;;5.22;;
21705;SDS011;11014;53.076;18.208;2023-06-26T11:47:00;6.85;;;5.20;;
21705;SDS011;11014;53.076;18.208;2023-06-26T11:49:29;5.90;;;5.22;;
21705;SDS011;11014;53.076;18.208;2023-06-26T11:51:57;6.15;;;5.00;;
21705;SDS011;11014;53.076;18.208;2023-06-26T11:54:27;5.97;;;5.43;;
21705;SDS011;11014;53.076;18.208;2023-06-26T11:56:57;5.82;;;5.30;;
21705;SDS011;11014;53.076;18.208;2023-06-26T11:59:34;5.75;;;5.18;;
21705;SDS011;11014;53.076;18.208;2023-06-26T12:02:08;6.10;;;5.60;;
21705;SDS011;11014;53.076;18.208;2023-06-26T12:04:39;5.78;;;5.28;;
21705;SDS011;11014;53.076;18.208;2023-06-26T12:07:10;6.55;;;5.70;;
21705;SDS011;11014;53.076;18.208;2023-06-26T12:13:07;7.00;;;6.00;;
21705;SDS011;11014;53.076;18.208;2023-06-26T12:19:04;6.88;;;6.25;;
21705;SDS011;11014;53.076;18.208;2023-06-26T12:24:31;7.32;;;6.05;;
21705;SDS011;11014;53.076;18.208;2023-06-26T12:27:00;8.27;;;5.97;;
21705;SDS011;11014;53.076;18.208;2023-06-26T12:29:31;8.25;;;6.05;;
21705;SDS011;11014;53.076;18.208;2023-06-26T12:32:17;7.32;;;5.78;;
21705;SDS011;11014;53.076;18.208;2023-06-26T12:35:13;7.90;;;5.82;;
21705;SDS011;11014;53.076;18.208;2023-06-26T12:37:47;7.38;;;5.85;;
21705;SDS011;11014;53.076;18.208;2023-06-26T12:43:47;8.15;;;5.72;;
21705;SDS011;11014;53.076;18.208;2023-06-26T12:46:18;5.70;;;5.10;;
21705;SDS011;11014;53.076;18.208;2023-06-26T12:48:51;6.20;;;5.60;;
21705;SDS011;11014;53.076;18.208;2023-06-26T12:51:22;6.63;;;5.28;;
21705;SDS011;11014;53.076;18.208;2023-06-26T12:57:39;6.78;;;5.20;;
21705;SDS011;11014;53.076;18.208;2023-06-26T13:00:07;9.85;;;5.47;;
21705;SDS011;11014;53.076;18.208;2023-06-26T13:02:45;6.00;;;5.50;;
21705;SDS011;11014;53.076;18.208;2023-06-26T13:05:14;7.20;;;5.93;;
21705;SDS011;11014;53.076;18.208;2023-06-26T13:07:45;5.95;;;5.45;;
21705;SDS011;11014;53.076;18.208;2023-06-26T13:10:21;5.55;;;5.05;;
21705;SDS011;11014;53.076;18.208;2023-06-26T13:12:50;6.93;;;5.43;;
21705;SDS011;11014;53.076;18.208;2023-06-26T13:15:18;5.90;;;5.38;;
21705;SDS011;11014;53.076;18.208;2023-06-26T13:17:48;5.93;;;5.32;;
21705;SDS011;11014;53.076;18.208;2023-06-26T13:23:12;8.43;;;5.40;;
21705;SDS011;11014;53.076;18.208;2023-06-26T13:25:41;5.70;;;5.20;;
21705;SDS011;11014;53.076;18.208;2023-06-26T13:28:14;6.22;;;5.72;;
21705;SDS011;11014;53.076;18.208;2023-06-26T13:30:42;10.52;;;6.03;;
21705;SDS011;11014;53.076;18.208;2023-06-26T13:33:11;5.75;;;5.25;;
21705;SDS011;11014;53.076;18.208;2023-06-26T13:41:43;7.50;;;6.00;;
21705;SDS011;11014;53.076;18.208;2023-06-26T13:44:20;7.57;;;5.45;;
21705;SDS011;11014;53.076;18.208;2023-06-26T13:47:03;7.25;;;5.65;;
21705;SDS011;11014;53.076;18.208;2023-06-26T13:49:32;6.75;;;5.47;;
21705;SDS011;11014;53.076;18.208;2023-06-26T13:52:01;6.68;;;6.07;;
21705;SDS011;11014;53.076;18.208;2023-06-26T13:54:30;5.97;;;5.47;;
21705;SDS011;11014;53.076;18.208;2023-06-26T13:56:58;8.07;;;5.85;;
21705;SDS011;11014;53.076;18.208;2023-06-26T13:59:30;7.18;;;5.80;;
21705;SDS011;11014;53.076;18.208;2023-06-26T14:01:59;5.95;;;5.45;;
21705;SDS011;11014;53.076;18.208;2023-06-26T14:04:28;6.10;;;5.50;;
21705;SDS011;11014;53.076;18.208;2023-06-26T14:07:03;6.15;;;5.55;;
21705;SDS011;11014;53.076;18.208;2023-06-26T14:09:32;8.27;;;5.72;;
21705;SDS011;11014;53.076;18.208;2023-06-26T14:12:00;7.28;;;5.78;;
21705;SDS011;11014;53.076;18.208;2023-06-26T14:14:29;6.05;;;5.50;;
21705;SDS011;11014;53.076;18.208;2023-06-26T14:16:59;6.22;;;5.75;;
21705;SDS011;11014;53.076;18.208;2023-06-26T14:19:28;7.68;;;5.50;;
21705;SDS011;11014;53.076;18.208;2023-06-26T14:21:57;7.22;;;5.75;;
21705;SDS011;11014;53.076;18.208;2023-06-26T14:24:28;6.43;;;5.82;;
21705;SDS011;11014;53.076;18.208;2023-06-26T14:26:58;9.25;;;5.88;;
21705;SDS011;11014;53.076;18.208;2023-06-26T14:29:29;9.50;;;5.72;;
21705;SDS011;11014;53.076;18.208;2023-06-26T14:31:58;6.57;;;5.50;;
21705;SDS011;11014;53.076;18.208;2023-06-26T14:34:30;5.75;;;5.20;;
21705;SDS011;11014;53.076;18.208;2023-06-26T14:36:59;5.88;;;5.40;;
21705;SDS011;11014;53.076;18.208;2023-06-26T14:39:28;12.95;;;6.57;;
21705;SDS011;11014;53.076;18.208;2023-06-26T14:42:00;18.13;;;6.65;;
21705;SDS011;11014;53.076;18.208;2023-06-26T14:44:29;6.32;;;5.72;;
21705;SDS011;11014;53.076;18.208;2023-06-26T14:46:58;6.07;;;5.57;;
21705;SDS011;11014;53.076;18.208;2023-06-26T14:49:27;5.90;;;5.40;;
21705;SDS011;11014;53.076;18.208;2023-06-26T14:51:56;6.35;;;5.75;;
21705;SDS011;11014;53.076;18.208;2023-06-26T14:54:24;6.07;;;5.63;;
21705;SDS011;11014;53.076;18.208;2023-06-26T14:56:53;7.30;;;5.65;;
21705;SDS011;11014;53.076;18.208;2023-06-26T14:59:21;8.93;;;5.85;;
21705;SDS011;11014;53.076;18.208;2023-06-26T15:01:50;6.13;;;5.18;;
21705;SDS011;11014;53.076;18.208;2023-06-26T15:04:19;5.78;;;5.38;;
21705;SDS011;11014;53.076;18.208;2023-06-26T15:06:47;8.02;;;5.78;;
21705;SDS011;11014;53.076;18.208;2023-06-26T15:09:16;5.72;;;5.15;;
21705;SDS011;11014;53.076;18.208;2023-06-26T15:11:44;5.93;;;5.43;;
21705;SDS011;11014;53.076;18.208;2023-06-26T15:17:07;5.82;;;5.20;;
21705;SDS011;11014;53.076;18.208;2023-06-26T15:19:36;6.30;;;5.60;;
21705;SDS011;11014;53.076;18.208;2023-06-26T15:22:04;5.63;;;5.13;;
21705;SDS011;11014;53.076;18.208;2023-06-26T15:24:33;8.05;;;5.88;;
21705;SDS011;11014;53.076;18.208;2023-06-26T15:27:01;9.95;;;5.60;;
21705;SDS011;11014;53.076;18.208;2023-06-26T15:29:32;5.70;;;5.25;;
21705;SDS011;11014;53.076;18.208;2023-06-26T15:32:01;13.95;;;5.72;;
21705;SDS011;11014;53.076;18.208;2023-06-26T15:34:30;6.10;;;5.47;;
21705;SDS011;11014;53.076;18.208;2023-06-26T15:36:58;6.63;;;5.45;;
21705;SDS011;11014;53.076;18.208;2023-06-26T15:39:28;5.80;;;5.25;;
21705;SDS011;11014;53.076;18.208;2023-06-26T15:41:56;5.20;;;4.57;;
21705;SDS011;11014;53.076;18.208;2023-06-26T15:44:25;5.72;;;5.22;;
21705;SDS011;11014;53.076;18.208;2023-06-26T15:46:54;6.75;;;5.80;;
21705;SDS011;11014;53.076;18.208;2023-06-26T15:49:22;5.65;;;5.10;;
21705;SDS011;11014;53.076;18.208;2023-06-26T15:51:51;5.38;;;4.60;;
21705;SDS011;11014;53.076;18.208;2023-06-26T15:54:20;5.22;;;4.82;;